sensor_id;sensor_type;location;lat;lon;timestamp;temperature;humidity
7077;DHT22;3579;48.956;9.154;2024-01-16T00:00:08;15.50;51.30
7077;DHT22;3579;48.956;9.154;2024-01-16T00:02:34;15.50;51.30
7077;DHT22;3579;48.956;9.154;2024-01-16T00:05:00;15.50;51.40
7077;DHT22;3579;48.956;9.154;2024-01-16T00:07:26;15.50;51.50
7077;DHT22;3579;48.956;9.154;2024-01-16T00:09:52;15.60;51.60
7077;DHT22;3579;48.956;9.154;2024-01-16T00:12:20;15.60;51.50
7077;DHT22;3579;48.956;9.154;2024-01-16T00:14:46;15.60;51.50
7077;DHT22;3579;48.956;9.154;2024-01-16T00:17:12;15.50;51.40
7077;DHT22;3579;48.956;9.154;2024-01-16T00:19:38;15.60;51.50
7077;DHT22;3579;48.956;9.154;2024-01-16T00:22:05;15.50;51.40
7077;DHT22;3579;48.956;9.154;2024-01-16T00:24:31;15.50;51.50
7077;DHT22;3579;48.956;9.154;2024-01-16T00:26:57;15.50;51.50
7077;DHT22;3579;48.956;9.154;2024-01-16T00:29:23;15.50;51.50
7077;DHT22;3579;48.956;9.154;2024-01-16T00:31:49;15.50;51.50
7077;DHT22;3579;48.956;9.154;2024-01-16T00:34:16;15.50;51.50
7077;DHT22;3579;48.956;9.154;2024-01-16T00:36:42;15.50;51.50
7077;DHT22;3579;48.956;9.154;2024-01-16T00:39:08;15.50;51.50
7077;DHT22;3579;48.956;9.154;2024-01-16T00:41:34;15.50;51.60
7077;DHT22;3579;48.956;9.154;2024-01-16T00:44:00;15.40;51.60
7077;DHT22;3579;48.956;9.154;2024-01-16T00:46:26;15.40;52.10
7077;DHT22;3579;48.956;9.154;2024-01-16T00:48:52;15.40;51.60
7077;DHT22;3579;48.956;9.154;2024-01-16T00:51:18;15.40;51.60
7077;DHT22;3579;48.956;9.154;2024-01-16T00:53:44;15.40;51.60
7077;DHT22;3579;48.956;9.154;2024-01-16T00:56:11;15.40;51.60
7077;DHT22;3579;48.956;9.154;2024-01-16T00:58:38;15.40;51.70
7077;DHT22;3579;48.956;9.154;2024-01-16T01:01:04;15.40;51.60
7077;DHT22;3579;48.956;9.154;2024-01-16T01:03:33;15.40;51.70
7077;DHT22;3579;48.956;9.154;2024-01-16T01:06:00;15.40;51.70
7077;DHT22;3579;48.956;9.154;2024-01-16T01:08:27;15.40;51.80
7077;DHT22;3579;48.956;9.154;2024-01-16T01:10:53;15.40;51.80
7077;DHT22;3579;48.956;9.154;2024-01-16T01:13:19;15.30;51.80
7077;DHT22;3579;48.956;9.154;2024-01-16T01:15:45;15.30;51.80
7077;DHT22;3579;48.956;9.154;2024-01-16T01:18:11;15.30;51.80
7077;DHT22;3579;48.956;9.154;2024-01-16T01:20:37;15.30;51.80
7077;DHT22;3579;48.956;9.154;2024-01-16T01:23:03;15.30;51.90
7077;DHT22;3579;48.956;9.154;2024-01-16T01:25:29;15.30;51.90
7077;DHT22;3579;48.956;9.154;2024-01-16T01:27:55;15.30;52.50
7077;DHT22;3579;48.956;9.154;2024-01-16T01:30:21;15.30;52.00
7077;DHT22;3579;48.956;9.154;2024-01-16T01:32:47;15.20;51.90
7077;DHT22;3579;48.956;9.154;2024-01-16T01:35:13;15.20;51.80
7077;DHT22;3579;48.956;9.154;2024-01-16T01:37:40;15.20;51.90
7077;DHT22;3579;48.956;9.154;2024-01-16T01:40:06;15.20;52.00
7077;DHT22;3579;48.956;9.154;2024-01-16T01:42:33;15.20;51.90
7077;DHT22;3579;48.956;9.154;2024-01-16T01:44:58;15.20;51.90
7077;DHT22;3579;48.956;9.154;2024-01-16T01:47:24;15.20;51.90
7077;DHT22;3579;48.956;9.154;2024-01-16T01:49:51;15.20;51.90
7077;DHT22;3579;48.956;9.154;2024-01-16T01:52:18;15.20;52.00
7077;DHT22;3579;48.956;9.154;2024-01-16T01:54:44;15.20;52.00
7077;DHT22;3579;48.956;9.154;2024-01-16T01:57:11;15.10;52.10
7077;DHT22;3579;48.956;9.154;2024-01-16T01:59:37;15.20;52.20
7077;DHT22;3579;48.956;9.154;2024-01-16T02:02:04;15.10;52.10
7077;DHT22;3579;48.956;9.154;2024-01-16T02:04:31;15.10;52.10
7077;DHT22;3579;48.956;9.154;2024-01-16T02:06:58;15.20;52.10
7077;DHT22;3579;48.956;9.154;2024-01-16T02:09:24;15.10;52.10
7077;DHT22;3579;48.956;9.154;2024-01-16T02:11:50;15.20;52.20
7077;DHT22;3579;48.956;9.154;2024-01-16T02:14:16;15.10;52.10
7077;DHT22;3579;48.956;9.154;2024-01-16T02:16:43;15.20;52.20
7077;DHT22;3579;48.956;9.154;2024-01-16T02:19:12;15.10;52.20
7077;DHT22;3579;48.956;9.154;2024-01-16T02:21:47;15.10;52.20
7077;DHT22;3579;48.956;9.154;2024-01-16T02:24:18;15.10;52.10
7077;DHT22;3579;48.956;9.154;2024-01-16T02:26:44;15.10;52.20
7077;DHT22;3579;48.956;9.154;2024-01-16T02:29:10;15.00;52.20
7077;DHT22;3579;48.956;9.154;2024-01-16T02:31:37;15.00;52.20
7077;DHT22;3579;48.956;9.154;2024-01-16T02:34:03;15.00;52.20
7077;DHT22;3579;48.956;9.154;2024-01-16T02:36:32;15.00;52.60
7077;DHT22;3579;48.956;9.154;2024-01-16T02:38:59;15.00;52.00
7077;DHT22;3579;48.956;9.154;2024-01-16T02:41:25;15.10;52.10
7077;DHT22;3579;48.956;9.154;2024-01-16T02:43:51;15.10;52.10
7077;DHT22;3579;48.956;9.154;2024-01-16T02:46:17;15.00;52.10
7077;DHT22;3579;48.956;9.154;2024-01-16T02:48:44;15.00;52.20
7077;DHT22;3579;48.956;9.154;2024-01-16T02:51:11;15.00;52.30
7077;DHT22;3579;48.956;9.154;2024-01-16T02:53:37;15.00;52.40
7077;DHT22;3579;48.956;9.154;2024-01-16T02:56:03;15.00;52.50
7077;DHT22;3579;48.956;9.154;2024-01-16T02:58:30;15.00;52.40
7077;DHT22;3579;48.956;9.154;2024-01-16T03:00:56;15.00;52.40
7077;DHT22;3579;48.956;9.154;2024-01-16T03:03:23;15.00;52.40
7077;DHT22;3579;48.956;9.154;2024-01-16T03:05:50;15.00;52.40
7077;DHT22;3579;48.956;9.154;2024-01-16T03:08:16;15.00;52.40
7077;DHT22;3579;48.956;9.154;2024-01-16T03:10:42;15.00;52.40
7077;DHT22;3579;48.956;9.154;2024-01-16T03:13:08;15.00;52.40
7077;DHT22;3579;48.956;9.154;2024-01-16T03:15:34;15.00;52.50
7077;DHT22;3579;48.956;9.154;2024-01-16T03:18:01;15.00;52.50
7077;DHT22;3579;48.956;9.154;2024-01-16T03:20:28;14.90;52.40
7077;DHT22;3579;48.956;9.154;2024-01-16T03:22:55;14.90;52.40
7077;DHT22;3579;48.956;9.154;2024-01-16T03:25:21;14.90;52.40
7077;DHT22;3579;48.956;9.154;2024-01-16T03:27:48;14.90;52.40
7077;DHT22;3579;48.956;9.154;2024-01-16T03:30:14;14.90;52.50
7077;DHT22;3579;48.956;9.154;2024-01-16T03:32:40;14.90;52.40
7077;DHT22;3579;48.956;9.154;2024-01-16T03:35:07;14.90;52.40
7077;DHT22;3579;48.956;9.154;2024-01-16T03:37:33;14.90;52.40
7077;DHT22;3579;48.956;9.154;2024-01-16T03:40:00;15.00;52.40
7077;DHT22;3579;48.956;9.154;2024-01-16T03:42:26;14.90;52.30
7077;DHT22;3579;48.956;9.154;2024-01-16T03:44:52;14.90;52.40
7077;DHT22;3579;48.956;9.154;2024-01-16T03:47:19;14.90;52.30
7077;DHT22;3579;48.956;9.154;2024-01-16T03:49:45;14.90;52.30
7077;DHT22;3579;48.956;9.154;2024-01-16T03:52:12;14.90;52.30
7077;DHT22;3579;48.956;9.154;2024-01-16T03:54:38;14.90;52.20
7077;DHT22;3579;48.956;9.154;2024-01-16T03:57:04;15.00;52.40
7077;DHT22;3579;48.956;9.154;2024-01-16T03:59:30;14.90;52.40
7077;DHT22;3579;48.956;9.154;2024-01-16T04:01:56;14.90;52.40
7077;DHT22;3579;48.956;9.154;2024-01-16T04:04:22;14.90;52.30
7077;DHT22;3579;48.956;9.154;2024-01-16T04:06:49;14.90;52.40
7077;DHT22;3579;48.956;9.154;2024-01-16T04:09:15;14.90;52.50
7077;DHT22;3579;48.956;9.154;2024-01-16T04:11:41;14.80;52.40
7077;DHT22;3579;48.956;9.154;2024-01-16T04:14:07;14.80;52.50
7077;DHT22;3579;48.956;9.154;2024-01-16T04:16:33;14.80;52.60
7077;DHT22;3579;48.956;9.154;2024-01-16T04:18:59;14.80;52.50
7077;DHT22;3579;48.956;9.154;2024-01-16T04:21:25;14.80;52.60
7077;DHT22;3579;48.956;9.154;2024-01-16T04:23:51;14.80;52.70
7077;DHT22;3579;48.956;9.154;2024-01-16T04:26:18;14.80;52.70
7077;DHT22;3579;48.956;9.154;2024-01-16T04:28:44;14.80;52.70
7077;DHT22;3579;48.956;9.154;2024-01-16T04:31:11;14.80;52.70
7077;DHT22;3579;48.956;9.154;2024-01-16T04:33:38;14.80;52.80
7077;DHT22;3579;48.956;9.154;2024-01-16T04:36:05;14.80;52.70
7077;DHT22;3579;48.956;9.154;2024-01-16T04:38:31;14.80;52.70
7077;DHT22;3579;48.956;9.154;2024-01-16T04:41:00;14.80;52.70
7077;DHT22;3579;48.956;9.154;2024-01-16T04:43:26;14.80;52.80
7077;DHT22;3579;48.956;9.154;2024-01-16T04:45:52;14.80;52.70
7077;DHT22;3579;48.956;9.154;2024-01-16T04:48:18;14.80;52.80
7077;DHT22;3579;48.956;9.154;2024-01-16T04:50:44;14.80;52.80
7077;DHT22;3579;48.956;9.154;2024-01-16T04:53:11;14.80;52.80
7077;DHT22;3579;48.956;9.154;2024-01-16T04:55:37;14.70;52.70
7077;DHT22;3579;48.956;9.154;2024-01-16T04:58:03;14.70;52.80
7077;DHT22;3579;48.956;9.154;2024-01-16T05:00:29;14.70;52.70
7077;DHT22;3579;48.956;9.154;2024-01-16T05:02:55;14.70;52.80
7077;DHT22;3579;48.956;9.154;2024-01-16T05:05:21;14.70;52.80
7077;DHT22;3579;48.956;9.154;2024-01-16T05:07:47;14.70;52.80
7077;DHT22;3579;48.956;9.154;2024-01-16T05:12:43;14.70;52.40
7077;DHT22;3579;48.956;9.154;2024-01-16T05:15:09;14.70;52.80
7077;DHT22;3579;48.956;9.154;2024-01-16T05:17:37;14.70;52.80
7077;DHT22;3579;48.956;9.154;2024-01-16T05:20:04;14.70;52.80
7077;DHT22;3579;48.956;9.154;2024-01-16T05:22:31;14.70;52.80
7077;DHT22;3579;48.956;9.154;2024-01-16T05:24:57;14.70;52.90
7077;DHT22;3579;48.956;9.154;2024-01-16T05:27:23;14.70;52.90
7077;DHT22;3579;48.956;9.154;2024-01-16T05:29:49;14.70;52.90
7077;DHT22;3579;48.956;9.154;2024-01-16T05:32:15;14.70;53.40
7077;DHT22;3579;48.956;9.154;2024-01-16T05:34:41;14.60;52.80
7077;DHT22;3579;48.956;9.154;2024-01-16T05:37:07;14.70;52.70
7077;DHT22;3579;48.956;9.154;2024-01-16T05:39:33;14.70;52.70
7077;DHT22;3579;48.956;9.154;2024-01-16T05:41:59;14.70;52.70
7077;DHT22;3579;48.956;9.154;2024-01-16T05:44:25;14.70;52.50
7077;DHT22;3579;48.956;9.154;2024-01-16T05:46:52;14.70;52.50
7077;DHT22;3579;48.956;9.154;2024-01-16T05:49:18;14.80;52.70
7077;DHT22;3579;48.956;9.154;2024-01-16T05:51:44;14.80;52.70
7077;DHT22;3579;48.956;9.154;2024-01-16T05:54:10;14.80;52.60
7077;DHT22;3579;48.956;9.154;2024-01-16T05:56:36;14.80;52.60
7077;DHT22;3579;48.956;9.154;2024-01-16T05:59:02;14.80;52.30
7077;DHT22;3579;48.956;9.154;2024-01-16T06:01:28;14.80;52.70
7077;DHT22;3579;48.956;9.154;2024-01-16T06:03:54;14.90;52.40
7077;DHT22;3579;48.956;9.154;2024-01-16T06:06:21;14.90;52.40
7077;DHT22;3579;48.956;9.154;2024-01-16T06:08:47;14.80;52.70
7077;DHT22;3579;48.956;9.154;2024-01-16T06:11:13;14.90;52.80
7077;DHT22;3579;48.956;9.154;2024-01-16T06:13:39;14.80;52.80
7077;DHT22;3579;48.956;9.154;2024-01-16T06:16:06;14.80;52.80
7077;DHT22;3579;48.956;9.154;2024-01-16T06:18:34;14.80;52.80
7077;DHT22;3579;48.956;9.154;2024-01-16T06:21:02;14.80;52.50
7077;DHT22;3579;48.956;9.154;2024-01-16T06:23:29;14.70;52.80
7077;DHT22;3579;48.956;9.154;2024-01-16T06:25:55;14.80;52.80
7077;DHT22;3579;48.956;9.154;2024-01-16T06:28:21;14.80;52.90
7077;DHT22;3579;48.956;9.154;2024-01-16T06:30:47;14.70;52.60
7077;DHT22;3579;48.956;9.154;2024-01-16T06:33:13;14.60;52.60
7077;DHT22;3579;48.956;9.154;2024-01-16T06:35:40;14.70;53.10
7077;DHT22;3579;48.956;9.154;2024-01-16T06:38:06;14.60;53.10
7077;DHT22;3579;48.956;9.154;2024-01-16T06:40:32;14.70;53.90
7077;DHT22;3579;48.956;9.154;2024-01-16T06:45:25;14.70;53.00
7077;DHT22;3579;48.956;9.154;2024-01-16T06:47:52;14.70;53.30
7077;DHT22;3579;48.956;9.154;2024-01-16T06:50:18;14.80;52.70
7077;DHT22;3579;48.956;9.154;2024-01-16T06:52:45;14.80;52.70
7077;DHT22;3579;48.956;9.154;2024-01-16T06:55:11;14.80;52.70
7077;DHT22;3579;48.956;9.154;2024-01-16T06:57:37;14.80;52.70
7077;DHT22;3579;48.956;9.154;2024-01-16T07:00:03;14.80;52.60
7077;DHT22;3579;48.956;9.154;2024-01-16T07:02:33;14.80;53.00
7077;DHT22;3579;48.956;9.154;2024-01-16T07:04:59;14.80;53.00
7077;DHT22;3579;48.956;9.154;2024-01-16T07:07:25;14.80;52.60
7077;DHT22;3579;48.956;9.154;2024-01-16T07:09:51;14.80;52.60
7077;DHT22;3579;48.956;9.154;2024-01-16T07:12:17;14.80;53.00
7077;DHT22;3579;48.956;9.154;2024-01-16T07:14:44;14.80;53.00
7077;DHT22;3579;48.956;9.154;2024-01-16T07:17:11;14.70;52.60
7077;DHT22;3579;48.956;9.154;2024-01-16T07:19:37;14.80;53.10
7077;DHT22;3579;48.956;9.154;2024-01-16T07:22:03;14.80;53.20
7077;DHT22;3579;48.956;9.154;2024-01-16T07:24:29;14.80;53.10
7077;DHT22;3579;48.956;9.154;2024-01-16T07:26:55;14.80;53.10
7077;DHT22;3579;48.956;9.154;2024-01-16T07:29:21;14.80;53.20
7077;DHT22;3579;48.956;9.154;2024-01-16T07:31:47;14.70;53.30
7077;DHT22;3579;48.956;9.154;2024-01-16T07:34:14;14.70;53.30
7077;DHT22;3579;48.956;9.154;2024-01-16T07:36:45;14.70;53.10
7077;DHT22;3579;48.956;9.154;2024-01-16T07:39:11;14.90;53.40
7077;DHT22;3579;48.956;9.154;2024-01-16T07:41:38;14.90;53.80
7077;DHT22;3579;48.956;9.154;2024-01-16T07:44:04;15.10;53.90
7077;DHT22;3579;48.956;9.154;2024-01-16T07:46:30;15.40;53.80
7077;DHT22;3579;48.956;9.154;2024-01-16T07:48:56;15.70;53.50
7077;DHT22;3579;48.956;9.154;2024-01-16T07:51:22;15.80;53.20
7077;DHT22;3579;48.956;9.154;2024-01-16T07:53:50;16.10;53.10
7077;DHT22;3579;48.956;9.154;2024-01-16T07:56:17;16.40;52.80
7077;DHT22;3579;48.956;9.154;2024-01-16T07:58:44;16.50;52.50
7077;DHT22;3579;48.956;9.154;2024-01-16T08:01:10;16.70;52.50
7077;DHT22;3579;48.956;9.154;2024-01-16T08:03:36;16.90;52.50
7077;DHT22;3579;48.956;9.154;2024-01-16T08:06:02;17.00;52.30
7077;DHT22;3579;48.956;9.154;2024-01-16T08:08:28;17.20;52.30
7077;DHT22;3579;48.956;9.154;2024-01-16T08:10:54;17.30;52.20
7077;DHT22;3579;48.956;9.154;2024-01-16T08:13:21;17.40;52.20
7077;DHT22;3579;48.956;9.154;2024-01-16T08:15:47;17.60;52.30
7077;DHT22;3579;48.956;9.154;2024-01-16T08:18:14;17.70;52.10
7077;DHT22;3579;48.956;9.154;2024-01-16T08:20:43;17.90;51.90
7077;DHT22;3579;48.956;9.154;2024-01-16T08:23:09;18.00;51.90
7077;DHT22;3579;48.956;9.154;2024-01-16T08:25:35;18.10;51.80
7077;DHT22;3579;48.956;9.154;2024-01-16T08:28:01;18.20;51.80
7077;DHT22;3579;48.956;9.154;2024-01-16T08:30:28;18.30;51.70
7077;DHT22;3579;48.956;9.154;2024-01-16T08:32:54;18.50;51.70
7077;DHT22;3579;48.956;9.154;2024-01-16T08:35:20;18.60;51.50
7077;DHT22;3579;48.956;9.154;2024-01-16T08:37:47;18.80;51.50
7077;DHT22;3579;48.956;9.154;2024-01-16T08:40:13;18.70;51.40
7077;DHT22;3579;48.956;9.154;2024-01-16T08:42:39;18.80;51.40
7077;DHT22;3579;48.956;9.154;2024-01-16T08:45:06;19.00;51.40
7077;DHT22;3579;48.956;9.154;2024-01-16T08:47:32;19.10;51.20
7077;DHT22;3579;48.956;9.154;2024-01-16T08:49:58;19.30;51.10
7077;DHT22;3579;48.956;9.154;2024-01-16T08:52:24;19.30;51.10
7077;DHT22;3579;48.956;9.154;2024-01-16T08:54:51;19.40;51.10
7077;DHT22;3579;48.956;9.154;2024-01-16T08:57:17;19.50;50.70
7077;DHT22;3579;48.956;9.154;2024-01-16T08:59:43;19.60;50.80
7077;DHT22;3579;48.956;9.154;2024-01-16T09:02:10;19.70;50.90
7077;DHT22;3579;48.956;9.154;2024-01-16T09:04:36;19.70;50.90
7077;DHT22;3579;48.956;9.154;2024-01-16T09:07:04;19.80;51.00
7077;DHT22;3579;48.956;9.154;2024-01-16T09:09:30;19.90;50.80
7077;DHT22;3579;48.956;9.154;2024-01-16T09:11:56;20.00;50.80
7077;DHT22;3579;48.956;9.154;2024-01-16T09:14:24;20.10;50.80
7077;DHT22;3579;48.956;9.154;2024-01-16T09:21:53;20.40;50.70
7077;DHT22;3579;48.956;9.154;2024-01-16T09:24:19;20.40;50.70
7077;DHT22;3579;48.956;9.154;2024-01-16T09:26:46;20.40;50.70
7077;DHT22;3579;48.956;9.154;2024-01-16T09:29:12;20.40;50.90
7077;DHT22;3579;48.956;9.154;2024-01-16T09:31:41;20.60;50.90
7077;DHT22;3579;48.956;9.154;2024-01-16T09:34:07;20.70;50.70
7077;DHT22;3579;48.956;9.154;2024-01-16T09:36:33;20.80;50.50
7077;DHT22;3579;48.956;9.154;2024-01-16T09:39:03;21.00;50.40
7077;DHT22;3579;48.956;9.154;2024-01-16T09:41:29;21.20;50.40
7077;DHT22;3579;48.956;9.154;2024-01-16T09:43:59;21.30;50.30
7077;DHT22;3579;48.956;9.154;2024-01-16T09:46:26;21.40;50.50
7077;DHT22;3579;48.956;9.154;2024-01-16T09:48:56;21.40;50.70
7077;DHT22;3579;48.956;9.154;2024-01-16T09:51:22;21.60;51.10
7077;DHT22;3579;48.956;9.154;2024-01-16T09:53:49;21.60;50.70
7077;DHT22;3579;48.956;9.154;2024-01-16T09:56:16;21.70;50.90
7077;DHT22;3579;48.956;9.154;2024-01-16T09:58:49;21.80;50.80
7077;DHT22;3579;48.956;9.154;2024-01-16T10:01:16;21.80;51.20
7077;DHT22;3579;48.956;9.154;2024-01-16T10:03:45;21.80;50.70
7077;DHT22;3579;48.956;9.154;2024-01-16T10:06:12;21.80;50.60
7077;DHT22;3579;48.956;9.154;2024-01-16T10:08:40;21.80;50.60
7077;DHT22;3579;48.956;9.154;2024-01-16T10:11:07;21.80;50.50
7077;DHT22;3579;48.956;9.154;2024-01-16T10:13:35;21.80;50.50
7077;DHT22;3579;48.956;9.154;2024-01-16T10:16:02;21.90;50.50
7077;DHT22;3579;48.956;9.154;2024-01-16T10:18:30;21.90;50.40
7077;DHT22;3579;48.956;9.154;2024-01-16T10:20:56;21.90;50.40
7077;DHT22;3579;48.956;9.154;2024-01-16T10:23:27;21.90;50.40
7077;DHT22;3579;48.956;9.154;2024-01-16T10:26:09;21.90;50.40
7077;DHT22;3579;48.956;9.154;2024-01-16T10:28:38;22.00;50.30
7077;DHT22;3579;48.956;9.154;2024-01-16T10:31:11;22.10;50.20
7077;DHT22;3579;48.956;9.154;2024-01-16T10:33:39;22.20;50.00
7077;DHT22;3579;48.956;9.154;2024-01-16T10:36:13;22.30;49.90
7077;DHT22;3579;48.956;9.154;2024-01-16T10:38:42;22.40;50.00
7077;DHT22;3579;48.956;9.154;2024-01-16T10:41:11;22.40;49.80
7077;DHT22;3579;48.956;9.154;2024-01-16T10:43:38;22.50;49.70
7077;DHT22;3579;48.956;9.154;2024-01-16T10:46:14;22.70;49.70
7077;DHT22;3579;48.956;9.154;2024-01-16T10:48:58;22.70;49.30
7077;DHT22;3579;48.956;9.154;2024-01-16T10:51:27;22.80;49.40
7077;DHT22;3579;48.956;9.154;2024-01-16T10:54:02;22.80;49.30
7077;DHT22;3579;48.956;9.154;2024-01-16T10:56:34;23.00;49.20
7077;DHT22;3579;48.956;9.154;2024-01-16T10:59:24;23.00;49.10
7077;DHT22;3579;48.956;9.154;2024-01-16T11:01:54;23.10;49.10
7077;DHT22;3579;48.956;9.154;2024-01-16T11:04:21;23.10;49.00
7077;DHT22;3579;48.956;9.154;2024-01-16T11:06:51;23.20;49.10
7077;DHT22;3579;48.956;9.154;2024-01-16T11:09:20;23.30;49.00
7077;DHT22;3579;48.956;9.154;2024-01-16T11:11:47;23.40;49.10
7077;DHT22;3579;48.956;9.154;2024-01-16T11:14:13;23.40;49.50
7077;DHT22;3579;48.956;9.154;2024-01-16T11:16:41;23.50;48.80
7077;DHT22;3579;48.956;9.154;2024-01-16T11:19:08;23.60;48.90
7077;DHT22;3579;48.956;9.154;2024-01-16T11:21:39;23.20;45.20
7077;DHT22;3579;48.956;9.154;2024-01-16T11:24:06;23.20;47.50
7077;DHT22;3579;48.956;9.154;2024-01-16T11:26:34;23.30;47.30
7077;DHT22;3579;48.956;9.154;2024-01-16T11:31:56;23.30;47.40
7077;DHT22;3579;48.956;9.154;2024-01-16T11:37:08;23.40;47.50
7077;DHT22;3579;48.956;9.154;2024-01-16T11:39:35;23.30;47.30
7077;DHT22;3579;48.956;9.154;2024-01-16T11:42:01;22.40;36.00
7077;DHT22;3579;48.956;9.154;2024-01-16T11:44:48;19.70;32.00
7077;DHT22;3579;48.956;9.154;2024-01-16T11:47:18;19.80;33.10
7077;DHT22;3579;48.956;9.154;2024-01-16T11:49:45;20.50;39.30
7077;DHT22;3579;48.956;9.154;2024-01-16T11:52:11;21.00;40.10
7077;DHT22;3579;48.956;9.154;2024-01-16T11:54:40;21.50;41.00
7077;DHT22;3579;48.956;9.154;2024-01-16T12:02:53;22.10;41.60
7077;DHT22;3579;48.956;9.154;2024-01-16T12:05:20;22.20;42.90
7077;DHT22;3579;48.956;9.154;2024-01-16T12:07:50;22.30;43.30
7077;DHT22;3579;48.956;9.154;2024-01-16T12:10:22;22.40;43.40
7077;DHT22;3579;48.956;9.154;2024-01-16T12:12:50;22.50;43.80
7077;DHT22;3579;48.956;9.154;2024-01-16T12:15:21;22.60;44.20
7077;DHT22;3579;48.956;9.154;2024-01-16T12:17:58;22.60;44.20
7077;DHT22;3579;48.956;9.154;2024-01-16T12:20:29;22.70;44.80
7077;DHT22;3579;48.956;9.154;2024-01-16T12:25:23;22.70;45.40
7077;DHT22;3579;48.956;9.154;2024-01-16T12:28:06;22.70;45.80
7077;DHT22;3579;48.956;9.154;2024-01-16T12:30:34;22.40;44.00
7077;DHT22;3579;48.956;9.154;2024-01-16T12:33:10;22.20;44.20
7077;DHT22;3579;48.956;9.154;2024-01-16T12:35:38;22.20;44.40
7077;DHT22;3579;48.956;9.154;2024-01-16T12:38:06;22.10;44.20
7077;DHT22;3579;48.956;9.154;2024-01-16T12:40:36;22.10;44.20
7077;DHT22;3579;48.956;9.154;2024-01-16T12:43:03;22.20;44.80
7077;DHT22;3579;48.956;9.154;2024-01-16T12:45:30;22.20;44.80
7077;DHT22;3579;48.956;9.154;2024-01-16T12:47:57;22.30;44.90
7077;DHT22;3579;48.956;9.154;2024-01-16T12:50:25;22.30;45.10
7077;DHT22;3579;48.956;9.154;2024-01-16T12:53:09;22.30;45.10
7077;DHT22;3579;48.956;9.154;2024-01-16T12:55:37;22.30;44.60
7077;DHT22;3579;48.956;9.154;2024-01-16T12:58:21;22.30;45.40
7077;DHT22;3579;48.956;9.154;2024-01-16T13:00:50;22.30;45.40
7077;DHT22;3579;48.956;9.154;2024-01-16T13:03:18;22.40;45.50
7077;DHT22;3579;48.956;9.154;2024-01-16T13:05:46;22.40;45.60
7077;DHT22;3579;48.956;9.154;2024-01-16T13:08:19;22.40;45.70
7077;DHT22;3579;48.956;9.154;2024-01-16T13:10:47;22.50;45.90
7077;DHT22;3579;48.956;9.154;2024-01-16T13:13:18;22.50;46.00
7077;DHT22;3579;48.956;9.154;2024-01-16T13:15:45;22.50;45.80
7077;DHT22;3579;48.956;9.154;2024-01-16T13:18:22;22.50;46.00
7077;DHT22;3579;48.956;9.154;2024-01-16T13:20:49;22.50;46.40
7077;DHT22;3579;48.956;9.154;2024-01-16T13:23:16;22.50;46.40
7077;DHT22;3579;48.956;9.154;2024-01-16T13:25:45;22.60;46.60
7077;DHT22;3579;48.956;9.154;2024-01-16T13:28:15;22.60;46.40
7077;DHT22;3579;48.956;9.154;2024-01-16T13:30:42;22.60;46.30
7077;DHT22;3579;48.956;9.154;2024-01-16T13:33:09;22.70;46.80
7077;DHT22;3579;48.956;9.154;2024-01-16T13:35:37;22.70;46.90
7077;DHT22;3579;48.956;9.154;2024-01-16T13:38:06;22.70;47.10
7077;DHT22;3579;48.956;9.154;2024-01-16T13:40:32;22.70;47.10
7077;DHT22;3579;48.956;9.154;2024-01-16T13:42:59;22.70;47.20
7077;DHT22;3579;48.956;9.154;2024-01-16T13:45:26;22.70;47.20
7077;DHT22;3579;48.956;9.154;2024-01-16T13:47:54;22.60;47.20
7077;DHT22;3579;48.956;9.154;2024-01-16T13:50:21;22.60;47.20
7077;DHT22;3579;48.956;9.154;2024-01-16T13:52:47;22.50;47.10
7077;DHT22;3579;48.956;9.154;2024-01-16T13:55:13;22.50;47.20
7077;DHT22;3579;48.956;9.154;2024-01-16T13:57:39;24.70;48.60
7077;DHT22;3579;48.956;9.154;2024-01-16T14:00:07;22.40;47.20
7077;DHT22;3579;48.956;9.154;2024-01-16T14:02:48;22.40;47.20
7077;DHT22;3579;48.956;9.154;2024-01-16T14:05:17;22.30;47.10
7077;DHT22;3579;48.956;9.154;2024-01-16T14:07:48;22.20;45.90
7077;DHT22;3579;48.956;9.154;2024-01-16T14:10:17;22.20;46.60
7077;DHT22;3579;48.956;9.154;2024-01-16T14:12:46;22.10;46.60
7077;DHT22;3579;48.956;9.154;2024-01-16T14:15:14;22.10;46.60
7077;DHT22;3579;48.956;9.154;2024-01-16T14:17:55;22.10;46.60
7077;DHT22;3579;48.956;9.154;2024-01-16T14:20:23;22.00;46.30
7077;DHT22;3579;48.956;9.154;2024-01-16T14:22:55;22.00;46.20
7077;DHT22;3579;48.956;9.154;2024-01-16T14:25:21;21.90;46.00
7077;DHT22;3579;48.956;9.154;2024-01-16T14:27:50;21.90;46.50
7077;DHT22;3579;48.956;9.154;2024-01-16T14:30:21;22.00;46.90
7077;DHT22;3579;48.956;9.154;2024-01-16T14:32:47;22.00;46.80
7077;DHT22;3579;48.956;9.154;2024-01-16T14:35:14;22.10;46.80
7077;DHT22;3579;48.956;9.154;2024-01-16T14:37:43;22.10;47.20
7077;DHT22;3579;48.956;9.154;2024-01-16T14:40:10;22.20;47.20
7077;DHT22;3579;48.956;9.154;2024-01-16T14:42:44;22.20;47.20
7077;DHT22;3579;48.956;9.154;2024-01-16T14:45:14;22.20;47.50
7077;DHT22;3579;48.956;9.154;2024-01-16T14:47:40;22.20;47.80
7077;DHT22;3579;48.956;9.154;2024-01-16T14:50:07;22.20;47.80
7077;DHT22;3579;48.956;9.154;2024-01-16T14:52:33;22.20;47.90
7077;DHT22;3579;48.956;9.154;2024-01-16T14:55:01;22.20;47.50
7077;DHT22;3579;48.956;9.154;2024-01-16T14:57:28;22.10;47.60
7077;DHT22;3579;48.956;9.154;2024-01-16T14:59:56;22.10;47.70
7077;DHT22;3579;48.956;9.154;2024-01-16T15:02:22;22.20;48.50
7077;DHT22;3579;48.956;9.154;2024-01-16T15:04:48;22.10;47.90
7077;DHT22;3579;48.956;9.154;2024-01-16T15:07:15;22.20;48.00
7077;DHT22;3579;48.956;9.154;2024-01-16T15:09:41;22.20;48.20
7077;DHT22;3579;48.956;9.154;2024-01-16T15:12:08;22.20;48.20
7077;DHT22;3579;48.956;9.154;2024-01-16T15:14:34;22.10;48.30
7077;DHT22;3579;48.956;9.154;2024-01-16T15:17:01;22.10;48.40
7077;DHT22;3579;48.956;9.154;2024-01-16T15:19:28;22.10;48.40
7077;DHT22;3579;48.956;9.154;2024-01-16T15:21:55;22.10;48.50
7077;DHT22;3579;48.956;9.154;2024-01-16T15:24:21;22.10;48.60
7077;DHT22;3579;48.956;9.154;2024-01-16T15:26:56;22.10;48.70
7077;DHT22;3579;48.956;9.154;2024-01-16T15:29:24;21.90;47.00
7077;DHT22;3579;48.956;9.154;2024-01-16T15:31:51;21.90;48.30
7077;DHT22;3579;48.956;9.154;2024-01-16T15:34:19;22.00;48.30
7077;DHT22;3579;48.956;9.154;2024-01-16T15:36:45;22.00;48.30
7077;DHT22;3579;48.956;9.154;2024-01-16T15:39:13;22.00;48.30
7077;DHT22;3579;48.956;9.154;2024-01-16T15:41:43;22.00;48.40
7077;DHT22;3579;48.956;9.154;2024-01-16T15:44:10;22.00;48.70
7077;DHT22;3579;48.956;9.154;2024-01-16T15:47:02;22.00;48.80
7077;DHT22;3579;48.956;9.154;2024-01-16T15:49:30;22.00;48.90
7077;DHT22;3579;48.956;9.154;2024-01-16T15:51:57;22.00;49.00
7077;DHT22;3579;48.956;9.154;2024-01-16T15:54:28;21.90;49.00
7077;DHT22;3579;48.956;9.154;2024-01-16T15:56:56;21.90;49.10
7077;DHT22;3579;48.956;9.154;2024-01-16T15:59:22;21.90;49.20
7077;DHT22;3579;48.956;9.154;2024-01-16T16:01:48;21.90;49.10
7077;DHT22;3579;48.956;9.154;2024-01-16T16:04:17;21.90;49.10
7077;DHT22;3579;48.956;9.154;2024-01-16T16:06:43;21.90;49.20
7077;DHT22;3579;48.956;9.154;2024-01-16T16:09:10;21.90;49.40
7077;DHT22;3579;48.956;9.154;2024-01-16T16:11:38;21.90;49.40
7077;DHT22;3579;48.956;9.154;2024-01-16T16:14:07;21.90;49.40
7077;DHT22;3579;48.956;9.154;2024-01-16T16:16:35;21.90;49.50
7077;DHT22;3579;48.956;9.154;2024-01-16T16:19:01;21.90;49.60
7077;DHT22;3579;48.956;9.154;2024-01-16T16:21:27;21.90;49.60
7077;DHT22;3579;48.956;9.154;2024-01-16T16:23:53;21.90;49.60
7077;DHT22;3579;48.956;9.154;2024-01-16T16:26:39;21.90;49.70